sensor_id;sensor_type;location;lat;lon;timestamp;P1;durP1;ratioP1;P2;durP2;ratioP2
49910;SDS011;35803;53.096;5.844;2023-05-10T00:02:04;14.50;;;8.73;;
49910;SDS011;35803;53.096;5.844;2023-05-10T00:04:49;11.77;;;7.75;;
49910;SDS011;35803;53.096;5.844;2023-05-10T00:07:33;14.73;;;8.32;;
49910;SDS011;35803;53.096;5.844;2023-05-10T00:10:17;11.07;;;7.40;;
49910;SDS011;35803;53.096;5.844;2023-05-10T00:13:01;10.75;;;7.30;;
49910;SDS011;35803;53.096;5.844;2023-05-10T00:15:45;10.85;;;7.07;;
49910;SDS011;35803;53.096;5.844;2023-05-10T00:18:29;10.50;;;7.03;;
49910;SDS011;35803;53.096;5.844;2023-05-10T00:21:13;8.65;;;6.50;;
49910;SDS011;35803;53.096;5.844;2023-05-10T00:23:58;10.27;;;6.30;;
49910;SDS011;35803;53.096;5.844;2023-05-10T00:26:42;11.25;;;7.80;;
49910;SDS011;35803;53.096;5.844;2023-05-10T00:29:26;11.68;;;7.47;;
49910;SDS011;35803;53.096;5.844;2023-05-10T00:32:12;14.15;;;7.25;;
49910;SDS011;35803;53.096;5.844;2023-05-10T00:34:58;11.55;;;7.30;;
49910;SDS011;35803;53.096;5.844;2023-05-10T00:37:42;16.60;;;8.68;;
49910;SDS011;35803;53.096;5.844;2023-05-10T00:40:26;16.27;;;8.30;;
49910;SDS011;35803;53.096;5.844;2023-05-10T00:43:11;13.85;;;8.00;;
49910;SDS011;35803;53.096;5.844;2023-05-10T00:45:55;14.65;;;7.55;;
49910;SDS011;35803;53.096;5.844;2023-05-10T00:48:39;13.13;;;7.10;;
49910;SDS011;35803;53.096;5.844;2023-05-10T00:51:23;17.25;;;8.32;;
49910;SDS011;35803;53.096;5.844;2023-05-10T00:54:08;16.10;;;7.45;;
49910;SDS011;35803;53.096;5.844;2023-05-10T00:56:55;22.10;;;8.52;;
49910;SDS011;35803;53.096;5.844;2023-05-10T00:59:40;25.13;;;9.38;;
49910;SDS011;35803;53.096;5.844;2023-05-10T01:02:24;30.70;;;11.30;;
49910;SDS011;35803;53.096;5.844;2023-05-10T01:05:09;25.35;;;10.90;;
49910;SDS011;35803;53.096;5.844;2023-05-10T01:07:53;35.60;;;11.18;;
49910;SDS011;35803;53.096;5.844;2023-05-10T01:10:37;27.65;;;10.40;;
49910;SDS011;35803;53.096;5.844;2023-05-10T01:16:17;30.38;;;10.52;;
49910;SDS011;35803;53.096;5.844;2023-05-10T01:19:01;30.30;;;12.65;;
49910;SDS011;35803;53.096;5.844;2023-05-10T01:28:02;32.67;;;12.43;;
49910;SDS011;35803;53.096;5.844;2023-05-10T01:31:18;35.38;;;12.57;;
49910;SDS011;35803;53.096;5.844;2023-05-10T01:34:16;29.75;;;11.80;;
49910;SDS011;35803;53.096;5.844;2023-05-10T01:37:13;36.63;;;12.57;;
49910;SDS011;35803;53.096;5.844;2023-05-10T01:40:01;36.53;;;13.05;;
49910;SDS011;35803;53.096;5.844;2023-05-10T01:42:51;31.25;;;13.70;;
49910;SDS011;35803;53.096;5.844;2023-05-10T01:45:39;34.80;;;13.25;;
49910;SDS011;35803;53.096;5.844;2023-05-10T01:48:25;33.80;;;14.07;;
49910;SDS011;35803;53.096;5.844;2023-05-10T01:51:11;37.97;;;15.23;;
49910;SDS011;35803;53.096;5.844;2023-05-10T01:54:00;34.50;;;13.80;;
49910;SDS011;35803;53.096;5.844;2023-05-10T01:56:47;38.35;;;16.27;;
49910;SDS011;35803;53.096;5.844;2023-05-10T01:59:34;41.30;;;15.55;;
49910;SDS011;35803;53.096;5.844;2023-05-10T02:02:20;31.05;;;13.73;;
49910;SDS011;35803;53.096;5.844;2023-05-10T02:05:05;34.42;;;14.38;;
49910;SDS011;35803;53.096;5.844;2023-05-10T02:07:50;35.95;;;13.05;;
49910;SDS011;35803;53.096;5.844;2023-05-10T02:10:45;30.73;;;12.63;;
49910;SDS011;35803;53.096;5.844;2023-05-10T02:13:29;29.98;;;12.43;;
49910;SDS011;35803;53.096;5.844;2023-05-10T02:16:16;29.45;;;12.52;;
49910;SDS011;35803;53.096;5.844;2023-05-10T02:19:02;32.67;;;12.43;;
49910;SDS011;35803;53.096;5.844;2023-05-10T02:21:47;30.42;;;11.60;;
49910;SDS011;35803;53.096;5.844;2023-05-10T02:24:32;22.98;;;10.57;;
49910;SDS011;35803;53.096;5.844;2023-05-10T02:27:17;26.90;;;11.40;;
49910;SDS011;35803;53.096;5.844;2023-05-10T02:30:02;23.30;;;9.95;;
49910;SDS011;35803;53.096;5.844;2023-05-10T02:32:47;26.70;;;10.95;;
49910;SDS011;35803;53.096;5.844;2023-05-10T02:35:32;29.35;;;11.52;;
49910;SDS011;35803;53.096;5.844;2023-05-10T02:38:18;25.30;;;10.57;;
49910;SDS011;35803;53.096;5.844;2023-05-10T02:41:04;22.38;;;10.68;;
49910;SDS011;35803;53.096;5.844;2023-05-10T02:43:53;19.65;;;10.18;;
49910;SDS011;35803;53.096;5.844;2023-05-10T02:46:39;23.05;;;10.85;;
49910;SDS011;35803;53.096;5.844;2023-05-10T02:49:23;21.05;;;10.15;;
49910;SDS011;35803;53.096;5.844;2023-05-10T02:52:07;22.33;;;10.95;;
49910;SDS011;35803;53.096;5.844;2023-05-10T02:54:54;19.60;;;10.48;;
49910;SDS011;35803;53.096;5.844;2023-05-10T02:57:41;20.48;;;10.35;;
49910;SDS011;35803;53.096;5.844;2023-05-10T03:00:28;20.83;;;10.15;;
49910;SDS011;35803;53.096;5.844;2023-05-10T03:03:12;19.90;;;10.43;;
49910;SDS011;35803;53.096;5.844;2023-05-10T03:05:56;18.95;;;10.27;;
49910;SDS011;35803;53.096;5.844;2023-05-10T03:08:48;20.05;;;10.07;;
49910;SDS011;35803;53.096;5.844;2023-05-10T03:15:00;17.85;;;10.18;;
49910;SDS011;35803;53.096;5.844;2023-05-10T03:20:46;14.45;;;9.65;;
49910;SDS011;35803;53.096;5.844;2023-05-10T03:23:50;13.93;;;9.07;;
49910;SDS011;35803;53.096;5.844;2023-05-10T03:26:37;15.63;;;9.57;;
49910;SDS011;35803;53.096;5.844;2023-05-10T03:29:22;13.27;;;8.82;;
49910;SDS011;35803;53.096;5.844;2023-05-10T03:32:06;13.50;;;8.90;;
49910;SDS011;35803;53.096;5.844;2023-05-10T03:34:50;14.38;;;9.00;;
49910;SDS011;35803;53.096;5.844;2023-05-10T03:37:45;15.23;;;9.68;;
49910;SDS011;35803;53.096;5.844;2023-05-10T03:43:25;14.50;;;9.13;;
49910;SDS011;35803;53.096;5.844;2023-05-10T03:46:09;14.88;;;8.65;;
49910;SDS011;35803;53.096;5.844;2023-05-10T03:48:54;13.70;;;9.05;;
49910;SDS011;35803;53.096;5.844;2023-05-10T03:51:39;13.90;;;9.23;;
49910;SDS011;35803;53.096;5.844;2023-05-10T03:54:23;14.63;;;9.10;;
49910;SDS011;35803;53.096;5.844;2023-05-10T03:57:07;14.25;;;9.13;;
49910;SDS011;35803;53.096;5.844;2023-05-10T03:59:51;12.60;;;8.57;;
49910;SDS011;35803;53.096;5.844;2023-05-10T04:02:35;14.75;;;8.88;;
49910;SDS011;35803;53.096;5.844;2023-05-10T04:05:19;12.65;;;8.63;;
49910;SDS011;35803;53.096;5.844;2023-05-10T04:08:03;12.15;;;8.38;;
49910;SDS011;35803;53.096;5.844;2023-05-10T04:10:48;12.00;;;8.27;;
49910;SDS011;35803;53.096;5.844;2023-05-10T04:13:32;13.18;;;8.75;;
49910;SDS011;35803;53.096;5.844;2023-05-10T04:16:16;10.80;;;7.90;;
49910;SDS011;35803;53.096;5.844;2023-05-10T04:19:00;10.00;;;7.25;;
49910;SDS011;35803;53.096;5.844;2023-05-10T04:21:45;10.80;;;7.35;;
49910;SDS011;35803;53.096;5.844;2023-05-10T04:24:32;11.02;;;7.95;;
49910;SDS011;35803;53.096;5.844;2023-05-10T04:27:16;10.27;;;7.20;;
49910;SDS011;35803;53.096;5.844;2023-05-10T04:30:06;10.45;;;7.28;;
49910;SDS011;35803;53.096;5.844;2023-05-10T04:32:51;11.05;;;7.63;;
49910;SDS011;35803;53.096;5.844;2023-05-10T04:35:35;10.30;;;7.10;;
49910;SDS011;35803;53.096;5.844;2023-05-10T04:38:18;10.25;;;7.25;;
49910;SDS011;35803;53.096;5.844;2023-05-10T04:41:10;9.70;;;7.57;;
49910;SDS011;35803;53.096;5.844;2023-05-10T04:43:55;10.57;;;7.43;;
49910;SDS011;35803;53.096;5.844;2023-05-10T04:46:39;9.45;;;6.80;;
49910;SDS011;35803;53.096;5.844;2023-05-10T04:49:24;9.23;;;6.70;;
49910;SDS011;35803;53.096;5.844;2023-05-10T04:52:08;6.40;;;5.70;;
49910;SDS011;35803;53.096;5.844;2023-05-10T04:54:52;8.25;;;6.05;;
49910;SDS011;35803;53.096;5.844;2023-05-10T04:57:37;8.60;;;6.50;;
49910;SDS011;35803;53.096;5.844;2023-05-10T05:00:21;8.10;;;6.13;;
49910;SDS011;35803;53.096;5.844;2023-05-10T05:03:05;6.88;;;5.28;;
49910;SDS011;35803;53.096;5.844;2023-05-10T05:05:50;6.75;;;5.32;;
49910;SDS011;35803;53.096;5.844;2023-05-10T05:08:34;9.75;;;6.05;;
49910;SDS011;35803;53.096;5.844;2023-05-10T05:11:18;9.00;;;6.35;;
49910;SDS011;35803;53.096;5.844;2023-05-10T05:14:02;9.02;;;6.47;;
49910;SDS011;35803;53.096;5.844;2023-05-10T05:16:46;10.00;;;6.43;;
49910;SDS011;35803;53.096;5.844;2023-05-10T05:19:30;10.60;;;5.93;;
49910;SDS011;35803;53.096;5.844;2023-05-10T05:22:15;8.77;;;5.65;;
49910;SDS011;35803;53.096;5.844;2023-05-10T05:24:59;9.30;;;5.60;;
49910;SDS011;35803;53.096;5.844;2023-05-10T05:27:44;6.40;;;5.07;;
49910;SDS011;35803;53.096;5.844;2023-05-10T05:30:29;8.13;;;5.38;;
49910;SDS011;35803;53.096;5.844;2023-05-10T05:33:13;7.70;;;5.55;;
49910;SDS011;35803;53.096;5.844;2023-05-10T05:36:02;9.48;;;5.45;;
49910;SDS011;35803;53.096;5.844;2023-05-10T05:38:47;9.27;;;5.60;;
49910;SDS011;35803;53.096;5.844;2023-05-10T05:41:32;10.48;;;6.82;;
49910;SDS011;35803;53.096;5.844;2023-05-10T05:44:16;23.58;;;8.77;;
49910;SDS011;35803;53.096;5.844;2023-05-10T05:47:00;12.10;;;7.25;;
49910;SDS011;35803;53.096;5.844;2023-05-10T05:49:44;9.43;;;5.45;;
49910;SDS011;35803;53.096;5.844;2023-05-10T05:52:31;9.20;;;5.38;;
49910;SDS011;35803;53.096;5.844;2023-05-10T05:55:15;9.40;;;5.13;;
49910;SDS011;35803;53.096;5.844;2023-05-10T05:57:59;13.02;;;7.97;;
49910;SDS011;35803;53.096;5.844;2023-05-10T06:00:43;9.88;;;5.70;;
49910;SDS011;35803;53.096;5.844;2023-05-10T06:03:27;10.07;;;5.47;;
49910;SDS011;35803;53.096;5.844;2023-05-10T06:06:12;10.07;;;5.30;;
49910;SDS011;35803;53.096;5.844;2023-05-10T06:08:57;8.90;;;5.40;;
49910;SDS011;35803;53.096;5.844;2023-05-10T06:11:41;8.88;;;4.97;;
49910;SDS011;35803;53.096;5.844;2023-05-10T06:14:25;9.60;;;5.47;;
49910;SDS011;35803;53.096;5.844;2023-05-10T06:17:09;10.02;;;5.53;;
49910;SDS011;35803;53.096;5.844;2023-05-10T06:19:53;14.27;;;5.22;;
49910;SDS011;35803;53.096;5.844;2023-05-10T06:22:37;11.77;;;5.50;;
49910;SDS011;35803;53.096;5.844;2023-05-10T06:25:21;9.07;;;5.10;;
49910;SDS011;35803;53.096;5.844;2023-05-10T06:28:07;10.73;;;5.22;;
49910;SDS011;35803;53.096;5.844;2023-05-10T06:30:51;9.65;;;4.25;;
49910;SDS011;35803;53.096;5.844;2023-05-10T06:33:35;5.80;;;3.83;;
49910;SDS011;35803;53.096;5.844;2023-05-10T06:36:18;7.32;;;4.15;;
49910;SDS011;35803;53.096;5.844;2023-05-10T06:39:03;6.57;;;4.20;;
49910;SDS011;35803;53.096;5.844;2023-05-10T06:41:47;9.20;;;4.72;;
49910;SDS011;35803;53.096;5.844;2023-05-10T06:44:31;7.88;;;3.97;;
49910;SDS011;35803;53.096;5.844;2023-05-10T06:47:16;7.95;;;4.45;;
49910;SDS011;35803;53.096;5.844;2023-05-10T06:50:01;7.72;;;3.78;;
49910;SDS011;35803;53.096;5.844;2023-05-10T06:52:45;9.73;;;3.92;;
49910;SDS011;35803;53.096;5.844;2023-05-10T06:55:30;7.97;;;3.42;;
49910;SDS011;35803;53.096;5.844;2023-05-10T06:58:14;8.48;;;3.65;;
49910;SDS011;35803;53.096;5.844;2023-05-10T07:01:05;8.32;;;3.20;;
49910;SDS011;35803;53.096;5.844;2023-05-10T07:03:49;7.28;;;3.50;;
49910;SDS011;35803;53.096;5.844;2023-05-10T07:06:34;7.50;;;3.30;;
49910;SDS011;35803;53.096;5.844;2023-05-10T07:09:18;7.93;;;3.30;;
49910;SDS011;35803;53.096;5.844;2023-05-10T07:12:02;6.00;;;3.42;;
49910;SDS011;35803;53.096;5.844;2023-05-10T07:14:46;5.32;;;2.83;;
49910;SDS011;35803;53.096;5.844;2023-05-10T07:17:31;7.32;;;3.20;;
49910;SDS011;35803;53.096;5.844;2023-05-10T07:20:17;5.05;;;2.83;;
49910;SDS011;35803;53.096;5.844;2023-05-10T07:23:01;7.65;;;2.70;;
49910;SDS011;35803;53.096;5.844;2023-05-10T07:25:49;4.93;;;2.45;;
49910;SDS011;35803;53.096;5.844;2023-05-10T07:28:36;3.75;;;2.50;;
49910;SDS011;35803;53.096;5.844;2023-05-10T07:31:21;3.88;;;2.53;;
49910;SDS011;35803;53.096;5.844;2023-05-10T07:34:05;6.65;;;2.90;;
49910;SDS011;35803;53.096;5.844;2023-05-10T07:36:49;4.13;;;2.58;;
49910;SDS011;35803;53.096;5.844;2023-05-10T07:39:33;4.45;;;2.53;;
49910;SDS011;35803;53.096;5.844;2023-05-10T07:42:17;4.15;;;3.00;;
49910;SDS011;35803;53.096;5.844;2023-05-10T07:45:01;4.07;;;2.53;;
49910;SDS011;35803;53.096;5.844;2023-05-10T07:47:45;3.92;;;2.47;;
49910;SDS011;35803;53.096;5.844;2023-05-10T07:50:32;4.78;;;2.83;;
49910;SDS011;35803;53.096;5.844;2023-05-10T07:53:16;6.05;;;3.50;;
49910;SDS011;35803;53.096;5.844;2023-05-10T07:56:20;5.85;;;3.30;;
49910;SDS011;35803;53.096;5.844;2023-05-10T07:59:09;7.85;;;4.03;;
49910;SDS011;35803;53.096;5.844;2023-05-10T08:01:53;9.88;;;3.90;;
49910;SDS011;35803;53.096;5.844;2023-05-10T08:04:38;6.38;;;4.13;;
49910;SDS011;35803;53.096;5.844;2023-05-10T08:07:22;7.13;;;4.03;;
49910;SDS011;35803;53.096;5.844;2023-05-10T08:10:08;7.32;;;4.00;;
49910;SDS011;35803;53.096;5.844;2023-05-10T08:12:53;7.45;;;4.10;;
49910;SDS011;35803;53.096;5.844;2023-05-10T08:15:37;8.18;;;4.63;;
49910;SDS011;35803;53.096;5.844;2023-05-10T08:18:21;7.70;;;4.22;;
49910;SDS011;35803;53.096;5.844;2023-05-10T08:21:05;9.10;;;4.45;;
49910;SDS011;35803;53.096;5.844;2023-05-10T08:23:49;7.50;;;4.25;;
49910;SDS011;35803;53.096;5.844;2023-05-10T08:26:33;9.23;;;5.03;;
49910;SDS011;35803;53.096;5.844;2023-05-10T08:29:17;10.43;;;5.30;;
49910;SDS011;35803;53.096;5.844;2023-05-10T08:32:01;8.77;;;4.93;;
49910;SDS011;35803;53.096;5.844;2023-05-10T08:34:45;7.43;;;4.43;;
49910;SDS011;35803;53.096;5.844;2023-05-10T08:37:30;6.22;;;4.18;;
49910;SDS011;35803;53.096;5.844;2023-05-10T08:40:18;8.38;;;4.22;;
49910;SDS011;35803;53.096;5.844;2023-05-10T08:43:08;7.03;;;4.30;;
49910;SDS011;35803;53.096;5.844;2023-05-10T08:45:54;7.07;;;4.18;;
49910;SDS011;35803;53.096;5.844;2023-05-10T08:48:41;6.28;;;3.92;;
49910;SDS011;35803;53.096;5.844;2023-05-10T08:51:25;8.63;;;4.07;;
49910;SDS011;35803;53.096;5.844;2023-05-10T08:54:11;6.70;;;4.00;;
49910;SDS011;35803;53.096;5.844;2023-05-10T08:56:55;6.28;;;3.95;;
49910;SDS011;35803;53.096;5.844;2023-05-10T08:59:40;6.57;;;4.13;;
49910;SDS011;35803;53.096;5.844;2023-05-10T09:02:23;6.82;;;4.43;;
49910;SDS011;35803;53.096;5.844;2023-05-10T09:05:09;6.90;;;4.13;;
49910;SDS011;35803;53.096;5.844;2023-05-10T09:07:54;8.10;;;4.65;;
49910;SDS011;35803;53.096;5.844;2023-05-10T09:10:39;7.35;;;4.32;;
49910;SDS011;35803;53.096;5.844;2023-05-10T09:13:23;7.30;;;4.63;;
49910;SDS011;35803;53.096;5.844;2023-05-10T09:16:08;6.93;;;4.13;;
49910;SDS011;35803;53.096;5.844;2023-05-10T09:18:52;6.35;;;4.80;;
49910;SDS011;35803;53.096;5.844;2023-05-10T09:21:36;6.68;;;4.18;;
49910;SDS011;35803;53.096;5.844;2023-05-10T09:24:26;9.38;;;4.82;;
49910;SDS011;35803;53.096;5.844;2023-05-10T09:27:11;8.80;;;4.35;;
49910;SDS011;35803;53.096;5.844;2023-05-10T09:30:11;9.75;;;5.03;;
49910;SDS011;35803;53.096;5.844;2023-05-10T09:32:59;8.20;;;4.93;;
49910;SDS011;35803;53.096;5.844;2023-05-10T09:35:51;8.38;;;5.18;;
49910;SDS011;35803;53.096;5.844;2023-05-10T09:38:45;8.93;;;5.13;;
49910;SDS011;35803;53.096;5.844;2023-05-10T09:41:31;8.73;;;5.00;;
49910;SDS011;35803;53.096;5.844;2023-05-10T09:44:18;8.27;;;5.25;;
49910;SDS011;35803;53.096;5.844;2023-05-10T09:47:03;8.18;;;4.50;;
49910;SDS011;35803;53.096;5.844;2023-05-10T09:49:50;9.07;;;5.85;;
49910;SDS011;35803;53.096;5.844;2023-05-10T09:52:54;11.43;;;6.57;;
49910;SDS011;35803;53.096;5.844;2023-05-10T09:55:42;11.50;;;6.90;;
49910;SDS011;35803;53.096;5.844;2023-05-10T09:58:30;11.38;;;6.32;;
49910;SDS011;35803;53.096;5.844;2023-05-10T10:01:17;10.65;;;5.78;;
49910;SDS011;35803;53.096;5.844;2023-05-10T10:04:09;10.35;;;5.68;;
49910;SDS011;35803;53.096;5.844;2023-05-10T10:07:00;12.38;;;6.22;;
49910;SDS011;35803;53.096;5.844;2023-05-10T10:09:46;10.63;;;5.65;;
49910;SDS011;35803;53.096;5.844;2023-05-10T10:12:30;9.65;;;5.35;;
49910;SDS011;35803;53.096;5.844;2023-05-10T10:15:14;9.40;;;5.40;;
49910;SDS011;35803;53.096;5.844;2023-05-10T10:17:59;9.40;;;5.80;;
49910;SDS011;35803;53.096;5.844;2023-05-10T10:20:44;9.68;;;5.95;;
49910;SDS011;35803;53.096;5.844;2023-05-10T10:23:28;9.98;;;5.60;;
49910;SDS011;35803;53.096;5.844;2023-05-10T10:26:12;10.70;;;6.20;;
49910;SDS011;35803;53.096;5.844;2023-05-10T10:29:04;8.52;;;5.68;;
49910;SDS011;35803;53.096;5.844;2023-05-10T10:34:51;9.00;;;5.82;;
49910;SDS011;35803;53.096;5.844;2023-05-10T10:37:41;8.23;;;5.40;;
49910;SDS011;35803;53.096;5.844;2023-05-10T10:40:31;9.77;;;5.90;;
49910;SDS011;35803;53.096;5.844;2023-05-10T10:43:23;8.45;;;5.70;;
49910;SDS011;35803;53.096;5.844;2023-05-10T10:46:13;9.75;;;5.65;;
49910;SDS011;35803;53.096;5.844;2023-05-10T10:49:08;8.40;;;5.07;;
49910;SDS011;35803;53.096;5.844;2023-05-10T10:52:12;8.20;;;4.50;;
49910;SDS011;35803;53.096;5.844;2023-05-10T10:55:09;8.30;;;5.35;;
49910;SDS011;35803;53.096;5.844;2023-05-10T10:57:57;10.18;;;4.60;;
49910;SDS011;35803;53.096;5.844;2023-05-10T11:00:45;8.88;;;5.20;;
49910;SDS011;35803;53.096;5.844;2023-05-10T11:03:29;10.20;;;4.85;;
49910;SDS011;35803;53.096;5.844;2023-05-10T11:06:16;9.88;;;5.40;;
49910;SDS011;35803;53.096;5.844;2023-05-10T11:09:15;10.75;;;5.88;;
49910;SDS011;35803;53.096;5.844;2023-05-10T11:11:59;11.77;;;6.25;;
49910;SDS011;35803;53.096;5.844;2023-05-10T11:14:51;8.50;;;5.65;;
49910;SDS011;35803;53.096;5.844;2023-05-10T11:17:35;10.07;;;5.80;;
49910;SDS011;35803;53.096;5.844;2023-05-10T11:20:20;8.98;;;5.43;;
49910;SDS011;35803;53.096;5.844;2023-05-10T11:23:14;9.30;;;5.47;;
49910;SDS011;35803;53.096;5.844;2023-05-10T11:26:01;8.90;;;5.75;;
49910;SDS011;35803;53.096;5.844;2023-05-10T11:28:46;8.15;;;5.53;;
49910;SDS011;35803;53.096;5.844;2023-05-10T11:31:31;8.43;;;5.35;;
49910;SDS011;35803;53.096;5.844;2023-05-10T11:36:41;9.65;;;5.30;;
49910;SDS011;35803;53.096;5.844;2023-05-10T11:39:26;9.65;;;5.38;;
49910;SDS011;35803;53.096;5.844;2023-05-10T11:42:11;9.23;;;4.43;;
49910;SDS011;35803;53.096;5.844;2023-05-10T11:44:56;7.60;;;4.70;;
49910;SDS011;35803;53.096;5.844;2023-05-10T11:47:43;7.95;;;5.43;;
49910;SDS011;35803;53.096;5.844;2023-05-10T11:50:27;9.05;;;5.25;;
49910;SDS011;35803;53.096;5.844;2023-05-10T11:53:15;8.18;;;5.50;;
49910;SDS011;35803;53.096;5.844;2023-05-10T11:56:02;6.97;;;4.80;;
49910;SDS011;35803;53.096;5.844;2023-05-10T11:59:01;5.80;;;4.25;;
49910;SDS011;35803;53.096;5.844;2023-05-10T12:01:46;6.20;;;4.13;;
49910;SDS011;35803;53.096;5.844;2023-05-10T12:04:30;5.95;;;4.53;;
49910;SDS011;35803;53.096;5.844;2023-05-10T12:07:15;8.02;;;4.78;;
49910;SDS011;35803;53.096;5.844;2023-05-10T12:10:07;6.53;;;4.78;;
49910;SDS011;35803;53.096;5.844;2023-05-10T12:12:51;5.32;;;4.22;;
49910;SDS011;35803;53.096;5.844;2023-05-10T12:15:36;5.18;;;4.22;;
49910;SDS011;35803;53.096;5.844;2023-05-10T12:18:22;6.25;;;4.65;;
49910;SDS011;35803;53.096;5.844;2023-05-10T12:21:12;6.00;;;4.35;;
49910;SDS011;35803;53.096;5.844;2023-05-10T12:23:59;7.25;;;4.43;;
49910;SDS011;35803;53.096;5.844;2023-05-10T12:26:45;6.28;;;4.60;;
49910;SDS011;35803;53.096;5.844;2023-05-10T12:29:29;6.05;;;4.90;;
49910;SDS011;35803;53.096;5.844;2023-05-10T12:32:14;6.40;;;5.00;;
49910;SDS011;35803;53.096;5.844;2023-05-10T12:34:58;8.15;;;5.57;;
49910;SDS011;35803;53.096;5.844;2023-05-10T12:37:43;6.90;;;5.13;;
49910;SDS011;35803;53.096;5.844;2023-05-10T12:40:27;8.48;;;5.47;;
49910;SDS011;35803;53.096;5.844;2023-05-10T12:43:11;9.98;;;5.95;;
49910;SDS011;35803;53.096;5.844;2023-05-10T12:45:55;8.95;;;5.85;;
49910;SDS011;35803;53.096;5.844;2023-05-10T12:48:40;9.23;;;5.90;;
49910;SDS011;35803;53.096;5.844;2023-05-10T12:51:25;10.27;;;5.50;;
49910;SDS011;35803;53.096;5.844;2023-05-10T12:54:09;8.75;;;5.30;;
49910;SDS011;35803;53.096;5.844;2023-05-10T12:56:56;10.10;;;6.00;;
49910;SDS011;35803;53.096;5.844;2023-05-10T12:59:40;9.88;;;6.43;;
49910;SDS011;35803;53.096;5.844;2023-05-10T13:02:24;10.52;;;6.53;;
49910;SDS011;35803;53.096;5.844;2023-05-10T13:05:08;9.80;;;6.13;;
49910;SDS011;35803;53.096;5.844;2023-05-10T13:07:52;10.60;;;6.35;;
49910;SDS011;35803;53.096;5.844;2023-05-10T13:10:42;10.68;;;6.30;;
49910;SDS011;35803;53.096;5.844;2023-05-10T13:13:26;9.18;;;5.40;;
49910;SDS011;35803;53.096;5.844;2023-05-10T13:16:10;8.60;;;5.07;;
49910;SDS011;35803;53.096;5.844;2023-05-10T13:18:54;5.50;;;3.88;;
49910;SDS011;35803;53.096;5.844;2023-05-10T13:21:39;5.20;;;3.45;;
49910;SDS011;35803;53.096;5.844;2023-05-10T13:24:24;4.45;;;3.05;;
49910;SDS011;35803;53.096;5.844;2023-05-10T13:27:09;4.43;;;3.08;;
49910;SDS011;35803;53.096;5.844;2023-05-10T13:29:54;2.60;;;2.17;;
49910;SDS011;35803;53.096;5.844;2023-05-10T13:32:38;2.65;;;2.28;;
49910;SDS011;35803;53.096;5.844;2023-05-10T13:35:22;4.13;;;2.60;;
49910;SDS011;35803;53.096;5.844;2023-05-10T13:38:07;3.22;;;2.20;;
49910;SDS011;35803;53.096;5.844;2023-05-10T13:40:51;4.93;;;2.63;;
49910;SDS011;35803;53.096;5.844;2023-05-10T13:43:39;5.95;;;4.50;;
49910;SDS011;35803;53.096;5.844;2023-05-10T13:46:29;7.75;;;5.28;;
49910;SDS011;35803;53.096;5.844;2023-05-10T13:49:14;6.63;;;5.07;;
49910;SDS011;35803;53.096;5.844;2023-05-10T13:51:58;6.18;;;4.85;;
49910;SDS011;35803;53.096;5.844;2023-05-10T13:54:42;8.38;;;5.15;;
49910;SDS011;35803;53.096;5.844;2023-05-10T13:57:29;6.93;;;4.90;;
49910;SDS011;35803;53.096;5.844;2023-05-10T14:00:14;8.52;;;5.78;;
49910;SDS011;35803;53.096;5.844;2023-05-10T14:02:58;8.57;;;5.82;;
49910;SDS011;35803;53.096;5.844;2023-05-10T14:05:42;8.73;;;5.82;;
49910;SDS011;35803;53.096;5.844;2023-05-10T14:08:28;7.47;;;5.18;;
49910;SDS011;35803;53.096;5.844;2023-05-10T14:11:13;9.20;;;5.55;;
49910;SDS011;35803;53.096;5.844;2023-05-10T14:13:58;8.40;;;4.82;;
49910;SDS011;35803;53.096;5.844;2023-05-10T14:16:42;6.80;;;4.60;;
49910;SDS011;35803;53.096;5.844;2023-05-10T14:19:27;6.57;;;4.85;;
49910;SDS011;35803;53.096;5.844;2023-05-10T14:22:15;6.30;;;4.57;;
49910;SDS011;35803;53.096;5.844;2023-05-10T14:25:00;7.35;;;4.75;;
49910;SDS011;35803;53.096;5.844;2023-05-10T14:27:44;5.72;;;4.18;;
49910;SDS011;35803;53.096;5.844;2023-05-10T14:30:28;6.43;;;4.18;;
49910;SDS011;35803;53.096;5.844;2023-05-10T14:33:12;6.95;;;4.57;;
49910;SDS011;35803;53.096;5.844;2023-05-10T14:35:57;5.32;;;3.88;;
49910;SDS011;35803;53.096;5.844;2023-05-10T14:38:41;3.92;;;3.33;;
49910;SDS011;35803;53.096;5.844;2023-05-10T14:41:25;3.85;;;3.00;;
49910;SDS011;35803;53.096;5.844;2023-05-10T14:44:09;3.67;;;2.90;;
49910;SDS011;35803;53.096;5.844;2023-05-10T14:46:53;3.60;;;2.90;;
49910;SDS011;35803;53.096;5.844;2023-05-10T14:49:37;4.50;;;3.15;;
49910;SDS011;35803;53.096;5.844;2023-05-10T14:52:21;6.15;;;4.78;;
49910;SDS011;35803;53.096;5.844;2023-05-10T14:55:05;5.95;;;4.32;;
49910;SDS011;35803;53.096;5.844;2023-05-10T14:57:50;6.72;;;5.28;;
49910;SDS011;35803;53.096;5.844;2023-05-10T15:00:34;7.45;;;4.68;;
49910;SDS011;35803;53.096;5.844;2023-05-10T15:03:19;6.50;;;4.63;;
49910;SDS011;35803;53.096;5.844;2023-05-10T15:06:03;6.45;;;4.60;;
49910;SDS011;35803;53.096;5.844;2023-05-10T15:08:48;6.65;;;4.88;;
49910;SDS011;35803;53.096;5.844;2023-05-10T15:11:32;7.05;;;5.00;;
49910;SDS011;35803;53.096;5.844;2023-05-10T15:14:16;6.90;;;5.82;;
49910;SDS011;35803;53.096;5.844;2023-05-10T15:17:00;6.80;;;5.05;;
49910;SDS011;35803;53.096;5.844;2023-05-10T15:19:44;6.75;;;5.00;;
49910;SDS011;35803;53.096;5.844;2023-05-10T15:22:29;6.68;;;5.13;;
49910;SDS011;35803;53.096;5.844;2023-05-10T15:25:15;6.65;;;4.95;;
49910;SDS011;35803;53.096;5.844;2023-05-10T15:28:03;5.93;;;4.53;;
49910;SDS011;35803;53.096;5.844;2023-05-10T15:30:47;6.93;;;5.30;;
49910;SDS011;35803;53.096;5.844;2023-05-10T15:33:31;7.95;;;5.32;;
49910;SDS011;35803;53.096;5.844;2023-05-10T15:36:16;10.23;;;5.28;;
49910;SDS011;35803;53.096;5.844;2023-05-10T15:39:02;7.38;;;5.13;;
49910;SDS011;35803;53.096;5.844;2023-05-10T15:41:46;10.07;;;6.03;;
49910;SDS011;35803;53.096;5.844;2023-05-10T15:44:30;10.07;;;5.90;;
49910;SDS011;35803;53.096;5.844;2023-05-10T15:47:22;9.23;;;5.30;;
49910;SDS011;35803;53.096;5.844;2023-05-10T15:50:06;6.85;;;5.13;;
49910;SDS011;35803;53.096;5.844;2023-05-10T15:52:51;7.45;;;5.93;;
49910;SDS011;35803;53.096;5.844;2023-05-10T15:55:34;7.22;;;5.57;;
49910;SDS011;35803;53.096;5.844;2023-05-10T15:58:20;8.00;;;5.15;;
49910;SDS011;35803;53.096;5.844;2023-05-10T16:01:04;6.32;;;4.75;;
49910;SDS011;35803;53.096;5.844;2023-05-10T16:03:49;7.82;;;5.45;;
49910;SDS011;35803;53.096;5.844;2023-05-10T16:06:33;7.55;;;5.35;;
49910;SDS011;35803;53.096;5.844;2023-05-10T16:09:18;8.90;;;4.97;;
49910;SDS011;35803;53.096;5.844;2023-05-10T16:12:02;6.40;;;4.90;;
49910;SDS011;35803;53.096;5.844;2023-05-10T16:14:46;7.75;;;4.90;;
49910;SDS011;35803;53.096;5.844;2023-05-10T16:17:30;6.90;;;4.43;;
49910;SDS011;35803;53.096;5.844;2023-05-10T16:20:15;5.95;;;4.60;;
49910;SDS011;35803;53.096;5.844;2023-05-10T16:23:03;7.03;;;5.20;;
49910;SDS011;35803;53.096;5.844;2023-05-10T16:25:48;6.95;;;4.88;;
49910;SDS011;35803;53.096;5.844;2023-05-10T16:28:32;7.35;;;5.50;;
49910;SDS011;35803;53.096;5.844;2023-05-10T16:31:16;6.78;;;5.25;;
49910;SDS011;35803;53.096;5.844;2023-05-10T16:34:03;7.78;;;5.13;;
49910;SDS011;35803;53.096;5.844;2023-05-10T16:36:47;7.82;;;4.68;;
49910;SDS011;35803;53.096;5.844;2023-05-10T16:39:34;7.78;;;5.65;;
49910;SDS011;35803;53.096;5.844;2023-05-10T16:42:21;7.22;;;5.10;;
49910;SDS011;35803;53.096;5.844;2023-05-10T16:45:06;7.72;;;5.15;;
49910;SDS011;35803;53.096;5.844;2023-05-10T16:47:51;6.03;;;4.65;;
49910;SDS011;35803;53.096;5.844;2023-05-10T16:50:42;8.15;;;5.40;;
49910;SDS011;35803;53.096;5.844;2023-05-10T16:53:29;6.63;;;5.03;;
49910;SDS011;35803;53.096;5.844;2023-05-10T16:56:18;9.15;;;5.30;;